Pagrindinis puslapis
METAR-TAF:

METAR-TAF

Oro uostai :

Akra, Gana

platuma: 05-36N, ilguma: 000-10W, Aukštis: 68 m

Dabartinis oras

Ataskaita buvo paskelbta 44 minutes, ne 22:00 UTC
Vėjas 6 kt iš Vakarų
Temperatūra 24°C
Drėgmė 94%
Slėgis 1013 hPa
Matomumas 10 km arba daugiau
Mažai debesys ne aukštis 700 ft

METAR: DGAA 302200Z 27006KT 9999 FEW007 24/23 Q1013 NOSIG

Laikas: 22:44 (22:44 UTC)

Prognozė

Ataskaita buvo paskelbta 5 valandos ir 44 minutes, ne 17:00 UTC
Prognozė galioja nuo 30 metu 18 UTC su 31 metu 24 UTC
Vėjas 15 kt iš Pietų
Matomumas: 5000 m
Su prošvaistėmis ne aukštis 1000 ft
Mažai debesys ne aukštis 3000 ft, Liūtiniai kamuoliniai debesys.
perkūnija, lietus
Tapsmas
nuo 30 metu 21 UTC su 30 metu 23 UTC
Vėjas 8 kt iš Vakarų
Matomumas 10 km arba daugiau
Išsisklaidę debesys ne aukštis 1800 ft
Laikinai
nuo 31 metu 06 UTC su 31 metu 09 UTC
Matomumas: 8000 m

TAF: DGAA 301700Z 3018/3124 19015KT 5000 TSRA BKN010 FEW030CB BECMG 3021/3023 26008KT 9999 SCT018 TEMPO 3106/3109 8000

Orai ataskaitas ir orų prognozės (METAR, TAF).

turimą stotys yra geltonos ir raudonos taškus žemėlapyje.

Perkelti pele per norėdami pamatyti stoties vardą.

Tada spustelėkite, norėdami matyti oro stebėjimo ir prognozės.

Norėdami pakeisti žemėlapį: spustelėkite ant žalios mygtukų su juodo kryžiaus žemyn,; žalią mygtuką su brūkšneliu, jei norite nutolinti; arba žalių rodyklių gretimoms žemėlapius.


METAR-TAF: